Time;durP1;ratioP1;P1;durP2;ratioP2;P2;SDS_P1;SDS_P2;PMS_P1;PMS_P2;Temp;Humidity;BMP_temperature;BMP_pressure;BME280_temperature;BME280_humidity;BME280_pressure;Samples;Min_cycle;Max_cycle;Signal;HPM_P1;HPM_P2
2022/08/29 00:00:02;;;;;;;5.68;4.53;;;;;;;;;;5039433;28;20120;-92
2022/08/29 00:02:28;;;;;;;5.95;4.38;;;;;;;;;;5031312;28;20040;-93
2022/08/29 00:04:54;;;;;;;5.18;4.57;;;;;;;;;;5032485;28;20103;-93
2022/08/29 00:07:20;;;;;;;5.90;4.40;;;;;;;;;;5032751;28;20087;-92
2022/08/29 00:09:46;;;;;;;5.63;4.53;;;;;;;;;;5030904;28;20487;-93
2022/08/29 00:12:13;;;;;;;6.47;4.78;;;;;;;;;;5035374;28;20566;-93
2022/08/29 00:14:39;;;;;;;6.07;4.97;;;;;;;;;;5034927;28;20028;-93
2022/08/29 00:17:05;;;;;;;6.90;4.47;;;;;;;;;;5036750;28;20035;-92
2022/08/29 00:19:31;;;;;;;5.03;4.25;;;;;;;;;;5038400;28;20025;-93
2022/08/29 00:21:57;;;;;;;5.43;4.50;;;;;;;;;;5027964;28;20060;-92
2022/08/29 00:24:24;;;;;;;5.43;4.80;;;;;;;;;;5032982;28;20545;-93
2022/08/29 00:26:51;;;;;;;6.90;4.82;;;;;;;;;;5025623;28;20041;-92
2022/08/29 00:29:17;;;;;;;7.45;4.60;;;;;;;;;;5038390;28;20112;-93
2022/08/29 00:31:43;;;;;;;5.82;4.78;;;;;;;;;;5033973;28;20107;-93
2022/08/29 00:34:10;;;;;;;5.10;4.38;;;;;;;;;;5032609;28;20028;-93
2022/08/29 00:36:36;;;;;;;5.80;4.97;;;;;;;;;;5028243;28;20074;-93
2022/08/29 00:39:03;;;;;;;5.88;4.47;;;;;;;;;;5033203;28;20435;-93
2022/08/29 00:41:30;;;;;;;4.57;4.18;;;;;;;;;;5038081;28;20370;-93
2022/08/29 00:43:56;;;;;;;7.18;4.75;;;;;;;;;;5031970;28;20045;-93
2022/08/29 00:46:31;;;;;;;5.47;4.35;;;;;;;;;;5038348;28;20044;-92
2022/08/29 00:49:02;;;;;;;6.13;4.80;;;;;;;;;;5024372;28;20071;-92
2022/08/29 00:51:28;;;;;;;6.60;4.55;;;;;;;;;;5034646;28;20973;-92
2022/08/29 00:53:58;;;;;;;6.47;5.30;;;;;;;;;;5025733;28;20035;-92
2022/08/29 00:56:25;;;;;;;5.75;4.72;;;;;;;;;;5029449;28;20032;-92
2022/08/29 00:58:55;;;;;;;4.57;4.18;;;;;;;;;;5029382;28;20070;-93
2022/08/29 01:01:21;;;;;;;6.47;4.35;;;;;;;;;;5026008;28;20071;-92
2022/08/29 01:03:48;;;;;;;8.25;4.72;;;;;;;;;;5022921;28;20098;-93
2022/08/29 01:06:14;;;;;;;7.05;5.60;;;;;;;;;;5021861;28;20080;-92
2022/08/29 01:08:41;;;;;;;8.20;4.63;;;;;;;;;;5026640;28;20052;-92
2022/08/29 01:13:53;;;;;;;5.78;4.57;;;;;;;;;;5043495;28;20052;-92
2022/08/29 01:16:20;;;;;;;6.90;4.95;;;;;;;;;;5021334;28;20047;-93
2022/08/29 01:18:48;;;;;;;6.35;4.40;;;;;;;;;;5022817;28;20021;-91
2022/08/29 01:21:22;;;;;;;6.57;4.75;;;;;;;;;;5026307;28;20503;-92
2022/08/29 01:24:00;;;;;;;6.18;4.90;;;;;;;;;;5021438;28;20025;-92
2022/08/29 01:26:28;;;;;;;6.40;4.75;;;;;;;;;;5026511;28;20373;-93
2022/08/29 01:28:55;;;;;;;5.88;4.07;;;;;;;;;;5022007;28;20033;-92
2022/08/29 01:31:23;;;;;;;4.97;4.53;;;;;;;;;;5022899;28;20028;-92
2022/08/29 01:33:55;;;;;;;6.00;4.47;;;;;;;;;;5024954;28;20024;-92
2022/08/29 01:36:33;;;;;;;6.25;4.63;;;;;;;;;;5030101;28;20033;-92
2022/08/29 01:39:00;;;;;;;7.22;4.88;;;;;;;;;;5021286;28;20029;-92
2022/08/29 01:41:26;;;;;;;6.93;4.57;;;;;;;;;;5024752;28;20742;-91
2022/08/29 01:43:54;;;;;;;7.72;4.65;;;;;;;;;;5022578;28;20033;-92
2022/08/29 01:46:22;;;;;;;8.90;4.90;;;;;;;;;;5021167;28;20081;-92
2022/08/29 01:48:48;;;;;;;5.95;4.72;;;;;;;;;;5022155;28;20037;-93
2022/08/29 01:51:16;;;;;;;5.70;4.47;;;;;;;;;;5015875;28;20037;-93
2022/08/29 01:53:42;;;;;;;9.38;4.93;;;;;;;;;;5020702;28;20053;-92
2022/08/29 01:56:13;;;;;;;5.18;4.68;;;;;;;;;;5026705;28;20025;-92
2022/08/29 01:58:39;;;;;;;7.82;4.93;;;;;;;;;;5024301;28;20025;-92
2022/08/29 02:01:06;;;;;;;5.35;4.85;;;;;;;;;;5023505;28;20033;-93
2022/08/29 02:03:32;;;;;;;6.60;5.05;;;;;;;;;;5028462;28;20028;-93
2022/08/29 02:06:02;;;;;;;9.32;5.00;;;;;;;;;;5019237;28;20075;-92
2022/08/29 02:08:29;;;;;;;7.30;5.40;;;;;;;;;;5026281;28;20036;-93
2022/08/29 02:10:57;;;;;;;5.40;4.70;;;;;;;;;;5028146;28;20040;-92
2022/08/29 02:13:23;;;;;;;6.15;4.43;;;;;;;;;;5025375;28;20240;-92
2022/08/29 02:15:50;;;;;;;5.40;4.90;;;;;;;;;;5026775;28;20029;-92
2022/08/29 02:18:17;;;;;;;7.90;5.10;;;;;;;;;;5027844;28;20083;-92
2022/08/29 02:20:43;;;;;;;5.90;4.60;;;;;;;;;;5027406;28;20044;-92
2022/08/29 02:23:10;;;;;;;6.20;4.93;;;;;;;;;;5026392;28;20025;-91
2022/08/29 02:25:45;;;;;;;5.43;4.80;;;;;;;;;;5028667;28;20485;-92
2022/08/29 02:28:12;;;;;;;5.43;4.82;;;;;;;;;;5023230;28;20068;-92
2022/08/29 02:30:43;;;;;;;8.38;4.90;;;;;;;;;;5024783;28;20149;-90
2022/08/29 02:33:12;;;;;;;10.18;5.50;;;;;;;;;;5031525;28;20033;-92
2022/08/29 02:35:38;;;;;;;6.45;4.75;;;;;;;;;;5028350;28;20037;-91
2022/08/29 02:38:06;;;;;;;7.03;5.03;;;;;;;;;;5024425;28;20056;-91
2022/08/29 02:40:32;;;;;;;4.90;4.30;;;;;;;;;;5026840;28;20041;-92
2022/08/29 02:42:59;;;;;;;6.97;4.78;;;;;;;;;;5027213;28;20099;-93
2022/08/29 02:45:26;;;;;;;5.65;4.90;;;;;;;;;;5033949;28;20099;-93
2022/08/29 02:47:52;;;;;;;8.27;4.47;;;;;;;;;;5032741;28;20024;-93
2022/08/29 02:50:18;;;;;;;7.35;5.00;;;;;;;;;;5034774;28;20024;-92
2022/08/29 02:52:45;;;;;;;8.73;5.15;;;;;;;;;;5031482;28;20021;-93
2022/08/29 02:55:16;;;;;;;5.80;4.75;;;;;;;;;;5028940;28;20084;-93
2022/08/29 02:57:42;;;;;;;7.70;4.70;;;;;;;;;;5031272;28;20040;-92
2022/08/29 03:00:15;;;;;;;7.78;5.25;;;;;;;;;;5032590;28;20368;-92
2022/08/29 03:02:42;;;;;;;7.85;5.50;;;;;;;;;;5029180;28;20101;-92
2022/08/29 03:05:08;;;;;;;8.45;5.22;;;;;;;;;;5028041;28;20025;-93
2022/08/29 03:07:34;;;;;;;10.88;5.38;;;;;;;;;;5031069;28;20054;-92
2022/08/29 03:10:03;;;;;;;7.15;4.85;;;;;;;;;;5027798;28;20065;-92
2022/08/29 03:12:29;;;;;;;9.13;5.18;;;;;;;;;;5032012;28;20063;-93
2022/08/29 03:14:55;;;;;;;9.15;5.57;;;;;;;;;;5032196;28;20028;-93
2022/08/29 03:17:21;;;;;;;5.80;4.85;;;;;;;;;;5031858;28;20039;-92
2022/08/29 03:19:48;;;;;;;8.20;5.00;;;;;;;;;;5028576;28;20087;-92
2022/08/29 03:22:14;;;;;;;8.23;4.63;;;;;;;;;;5027680;28;20030;-92
2022/08/29 03:24:40;;;;;;;8.70;6.25;;;;;;;;;;5031943;28;20033;-93
2022/08/29 03:27:06;;;;;;;8.32;5.63;;;;;;;;;;5030317;28;20072;-94
2022/08/29 03:29:33;;;;;;;6.45;5.22;;;;;;;;;;5031718;28;20376;-93
2022/08/29 03:31:59;;;;;;;6.72;5.53;;;;;;;;;;5031154;28;20040;-93
2022/08/29 03:34:26;;;;;;;9.05;5.15;;;;;;;;;;5030710;28;20048;-93
2022/08/29 03:36:52;;;;;;;6.97;5.10;;;;;;;;;;5030799;28;20043;-93
2022/08/29 03:39:18;;;;;;;6.07;4.90;;;;;;;;;;5034305;28;20031;-94
2022/08/29 03:41:45;;;;;;;8.07;5.60;;;;;;;;;;5031952;28;20017;-92
2022/08/29 03:44:11;;;;;;;5.90;5.28;;;;;;;;;;5033759;28;20021;-93
2022/08/29 03:46:38;;;;;;;6.25;5.07;;;;;;;;;;5027373;28;20054;-93
2022/08/29 03:49:06;;;;;;;5.68;5.10;;;;;;;;;;5025839;28;20156;-94
2022/08/29 03:51:32;;;;;;;7.70;5.50;;;;;;;;;;5022631;28;20087;-93
2022/08/29 03:53:59;;;;;;;7.75;4.97;;;;;;;;;;5025456;28;20084;-94
2022/08/29 03:56:25;;;;;;;7.40;5.50;;;;;;;;;;5026820;28;20248;-93
2022/08/29 03:58:52;;;;;;;8.23;5.72;;;;;;;;;;5024996;28;20285;-93
2022/08/29 04:01:21;;;;;;;6.75;4.97;;;;;;;;;;5020520;28;20037;-93
2022/08/29 04:03:47;;;;;;;9.20;5.13;;;;;;;;;;5021598;28;20025;-93
2022/08/29 04:06:13;;;;;;;6.93;5.28;;;;;;;;;;5024846;28;20396;-93
2022/08/29 04:08:40;;;;;;;7.72;5.22;;;;;;;;;;5026285;28;20026;-93
2022/08/29 04:11:11;;;;;;;6.57;4.90;;;;;;;;;;5026731;28;20215;-93
2022/08/29 04:13:37;;;;;;;6.50;5.47;;;;;;;;;;5023655;28;20326;-93
2022/08/29 04:16:14;;;;;;;6.82;5.43;;;;;;;;;;5022266;28;20305;-94
2022/08/29 04:18:40;;;;;;;5.65;5.00;;;;;;;;;;5026846;28;20025;-92
2022/08/29 04:21:07;;;;;;;5.80;4.20;;;;;;;;;;5018316;28;20093;-93
2022/08/29 04:23:34;;;;;;;6.97;5.35;;;;;;;;;;5014823;28;20022;-93
2022/08/29 04:26:00;;;;;;;6.18;4.80;;;;;;;;;;5019810;28;20061;-92
2022/08/29 04:28:27;;;;;;;8.50;5.13;;;;;;;;;;5022703;28;20376;-92
2022/08/29 04:30:53;;;;;;;5.95;5.35;;;;;;;;;;5021586;28;20072;-93
2022/08/29 04:33:20;;;;;;;8.70;5.07;;;;;;;;;;5019383;28;20033;-95
2022/08/29 04:35:47;;;;;;;9.20;5.45;;;;;;;;;;5024480;28;20030;-96
2022/08/29 04:38:14;;;;;;;4.97;4.45;;;;;;;;;;5018788;28;20124;-95
2022/08/29 04:40:41;;;;;;;6.80;4.68;;;;;;;;;;5021503;28;20034;-94
2022/08/29 04:43:07;;;;;;;6.55;5.10;;;;;;;;;;5024540;28;20526;-96
2022/08/29 04:45:39;;;;;;;7.50;5.15;;;;;;;;;;5023119;28;20088;-96
2022/08/29 04:48:07;;;;;;;10.13;5.55;;;;;;;;;;5029511;28;20374;-96
2022/08/29 04:50:34;;;;;;;5.93;5.25;;;;;;;;;;5029780;28;20028;-95
2022/08/29 04:53:01;;;;;;;5.55;5.00;;;;;;;;;;5030752;28;20422;-95
2022/08/29 04:55:28;;;;;;;7.05;5.00;;;;;;;;;;5028073;28;20021;-96
2022/08/29 04:57:55;;;;;;;8.73;4.57;;;;;;;;;;5030416;28;20052;-94
2022/08/29 05:00:22;;;;;;;7.78;5.10;;;;;;;;;;5029734;28;20036;-96
2022/08/29 05:02:49;;;;;;;6.82;5.13;;;;;;;;;;5035075;28;20037;-95
2022/08/29 05:05:16;;;;;;;5.07;4.55;;;;;;;;;;5031435;28;20492;-95
2022/08/29 05:07:45;;;;;;;5.20;4.60;;;;;;;;;;5026834;28;20021;-95
2022/08/29 05:10:16;;;;;;;7.78;5.60;;;;;;;;;;5025786;28;20108;-95
2022/08/29 05:12:42;;;;;;;6.75;4.80;;;;;;;;;;5022571;28;20373;-94
2022/08/29 05:15:09;;;;;;;9.95;5.50;;;;;;;;;;5025819;28;20059;-95
2022/08/29 05:17:35;;;;;;;7.53;5.30;;;;;;;;;;5023985;28;20029;-94
2022/08/29 05:20:05;;;;;;;8.70;5.72;;;;;;;;;;5026960;28;20021;-95
2022/08/29 05:22:31;;;;;;;10.50;6.53;;;;;;;;;;5026467;28;20021;-95
2022/08/29 05:24:58;;;;;;;8.10;5.80;;;;;;;;;;5020761;28;20396;-94
2022/08/29 05:27:24;;;;;;;8.35;5.60;;;;;;;;;;5024934;28;20055;-95
2022/08/29 05:29:51;;;;;;;7.57;5.60;;;;;;;;;;5027361;28;20072;-94
2022/08/29 05:32:18;;;;;;;9.98;5.78;;;;;;;;;;5028722;28;20021;-93
2022/08/29 05:34:45;;;;;;;9.18;6.18;;;;;;;;;;5024887;28;20558;-93
2022/08/29 05:37:16;;;;;;;6.18;5.50;;;;;;;;;;5008016;28;20025;-94
2022/08/29 05:39:43;;;;;;;7.53;5.40;;;;;;;;;;5024152;28;20021;-93
2022/08/29 05:42:16;;;;;;;7.32;5.63;;;;;;;;;;5013631;28;20028;-94
2022/08/29 05:44:48;;;;;;;7.63;5.88;;;;;;;;;;5041700;28;20091;-95
2022/08/29 05:47:17;;;;;;;9.25;6.00;;;;;;;;;;5027212;28;20102;-96
2022/08/29 05:49:44;;;;;;;11.43;6.13;;;;;;;;;;5010200;28;20029;-94
2022/08/29 05:52:12;;;;;;;11.45;6.40;;;;;;;;;;5022702;28;20041;-95
2022/08/29 05:54:41;;;;;;;7.43;5.90;;;;;;;;;;5023334;28;20387;-95
2022/08/29 05:57:08;;;;;;;6.93;5.68;;;;;;;;;;5022904;28;20076;-93
2022/08/29 05:59:45;;;;;;;14.57;6.18;;;;;;;;;;5018419;28;20032;-95
2022/08/29 06:02:16;;;;;;;5.68;5.18;;;;;;;;;;5019244;28;20119;-94
2022/08/29 06:04:42;;;;;;;8.68;5.43;;;;;;;;;;5027358;28;20036;-93
2022/08/29 06:07:09;;;;;;;7.72;5.32;;;;;;;;;;5030316;28;20075;-94
2022/08/29 06:09:41;;;;;;;9.73;5.53;;;;;;;;;;5026978;28;20625;-95
2022/08/29 06:12:08;;;;;;;12.95;5.68;;;;;;;;;;5028017;28;20075;-95
2022/08/29 06:14:38;;;;;;;7.05;5.30;;;;;;;;;;5022970;28;20105;-95
2022/08/29 06:17:05;;;;;;;7.40;4.90;;;;;;;;;;5026500;28;20029;-95
2022/08/29 06:19:38;;;;;;;7.15;5.20;;;;;;;;;;5027151;28;20194;-96
2022/08/29 06:22:05;;;;;;;7.35;4.82;;;;;;;;;;5024480;28;20065;-95
2022/08/29 06:24:32;;;;;;;8.63;5.22;;;;;;;;;;5018067;28;20029;-95
2022/08/29 06:26:59;;;;;;;7.13;5.22;;;;;;;;;;5032316;28;20034;-95
2022/08/29 06:29:27;;;;;;;9.82;5.40;;;;;;;;;;5029410;28;20025;-95
2022/08/29 06:31:58;;;;;;;5.28;4.78;;;;;;;;;;5037224;28;20501;-96
2022/08/29 06:34:24;;;;;;;8.05;5.28;;;;;;;;;;5035470;28;20017;-96
2022/08/29 06:36:51;;;;;;;10.60;5.68;;;;;;;;;;5030461;28;20021;-94
2022/08/29 06:39:26;;;;;;;5.63;5.05;;;;;;;;;;5035478;28;20112;-96
2022/08/29 06:41:53;;;;;;;6.82;5.35;;;;;;;;;;5039445;28;20024;-96
2022/08/29 06:44:20;;;;;;;6.20;5.28;;;;;;;;;;5032892;28;20036;-96
2022/08/29 06:46:50;;;;;;;8.80;5.30;;;;;;;;;;5033294;28;20042;-96
2022/08/29 06:49:18;;;;;;;6.72;5.05;;;;;;;;;;5034407;28;20125;-96
2022/08/29 06:51:45;;;;;;;8.82;5.00;;;;;;;;;;5034523;28;20025;-96
2022/08/29 06:54:15;;;;;;;5.43;4.63;;;;;;;;;;5042062;28;20013;-96
2022/08/29 06:56:41;;;;;;;7.13;5.25;;;;;;;;;;5051349;28;20243;-96
2022/08/29 06:59:08;;;;;;;9.45;5.22;;;;;;;;;;5041800;28;20112;-95
2022/08/29 07:01:34;;;;;;;7.78;5.03;;;;;;;;;;5043976;28;20089;-96
2022/08/29 07:04:01;;;;;;;6.60;4.75;;;;;;;;;;5032239;28;20185;-96
2022/08/29 07:06:27;;;;;;;5.90;5.25;;;;;;;;;;5022228;28;20030;-96
2022/08/29 07:08:54;;;;;;;7.07;4.97;;;;;;;;;;5037376;28;20021;-96
2022/08/29 07:11:20;;;;;;;5.38;4.88;;;;;;;;;;5038052;28;20025;-95
2022/08/29 07:13:47;;;;;;;5.53;4.28;;;;;;;;;;5033232;28;20022;-96
2022/08/29 07:16:17;;;;;;;10.63;4.95;;;;;;;;;;5039014;28;20018;-96
2022/08/29 07:18:46;;;;;;;4.82;4.30;;;;;;;;;;5049778;28;20021;-96
2022/08/29 07:21:14;;;;;;;7.35;4.45;;;;;;;;;;5051491;28;20028;-96
2022/08/29 07:23:43;;;;;;;7.07;4.22;;;;;;;;;;5028749;28;20037;-96
2022/08/29 07:26:29;;;;;;;6.75;4.10;;;;;;;;;;5048962;28;20036;-96
2022/08/29 07:29:00;;;;;;;8.68;4.50;;;;;;;;;;5049431;22;20037;-93
2022/08/29 07:31:27;;;;;;;5.68;4.20;;;;;;;;;;5037662;28;20021;-93
2022/08/29 07:33:55;;;;;;;6.40;4.10;;;;;;;;;;5047220;28;20517;-92
2022/08/29 07:36:23;;;;;;;5.63;4.40;;;;;;;;;;5041979;28;20017;-94
2022/08/29 07:38:52;;;;;;;7.15;4.43;;;;;;;;;;5041198;28;20049;-93
2022/08/29 07:41:23;;;;;;;8.52;4.82;;;;;;;;;;5037599;28;20032;-93
2022/08/29 07:44:07;;;;;;;8.63;4.80;;;;;;;;;;5045488;28;20519;-92
2022/08/29 07:46:33;;;;;;;5.07;4.55;;;;;;;;;;5037885;28;20060;-93
2022/08/29 07:49:22;;;;;;;9.60;4.82;;;;;;;;;;5041524;28;20078;-92
2022/08/29 07:51:51;;;;;;;6.75;4.75;;;;;;;;;;5038896;28;20031;-93
2022/08/29 07:54:26;;;;;;;6.55;4.40;;;;;;;;;;5049153;28;20381;-92
2022/08/29 07:56:56;;;;;;;6.40;3.88;;;;;;;;;;5057068;28;20025;-92
2022/08/29 07:59:24;;;;;;;4.97;4.20;;;;;;;;;;5039366;28;20075;-92
2022/08/29 08:01:53;;;;;;;6.00;4.10;;;;;;;;;;5036988;28;20060;-92
2022/08/29 08:07:34;;;;;;;6.20;3.80;;;;;;;;;;5052554;28;20025;-93
2022/08/29 08:10:03;;;;;;;8.75;4.30;;;;;;;;;;5037374;28;20032;-93
2022/08/29 08:12:30;;;;;;;6.68;4.13;;;;;;;;;;5037312;28;20025;-93
2022/08/29 08:15:05;;;;;;;7.22;4.60;;;;;;;;;;5056971;28;20020;-93
2022/08/29 08:17:45;;;;;;;6.18;4.18;;;;;;;;;;5034510;28;20037;-94
2022/08/29 08:20:14;;;;;;;10.93;4.45;;;;;;;;;;5035810;28;20029;-94
2022/08/29 08:22:43;;;;;;;8.00;4.28;;;;;;;;;;5037047;28;20079;-94
2022/08/29 08:25:17;;;;;;;5.35;3.72;;;;;;;;;;5039755;28;20032;-93
2022/08/29 08:28:26;;;;;;;6.28;4.00;;;;;;;;;;5057172;28;20036;-92
2022/08/29 08:30:45;;;;;;;4.28;3.53;;;;;;;;;;5069731;28;20032;-93
2022/08/29 08:33:14;;;;;;;9.77;3.83;;;;;;;;;;5057096;28;20024;-93
2022/08/29 08:38:57;;;;;;;6.68;4.25;;;;;;;;;;5006552;28;20029;-94
2022/08/29 08:41:44;;;;;;;4.85;3.42;;;;;;;;;;5019946;28;20056;-93
2022/08/29 08:44:40;;;;;;;5.72;3.67;;;;;;;;;;5046802;28;20419;-94
2022/08/29 08:47:15;;;;;;;3.83;2.92;;;;;;;;;;5046836;28;20071;-94
2022/08/29 08:50:06;;;;;;;7.78;3.90;;;;;;;;;;5036424;28;20040;-94
2022/08/29 08:52:46;;;;;;;4.72;4.00;;;;;;;;;;5036533;28;20029;-94
2022/08/29 08:55:24;;;;;;;5.47;3.63;;;;;;;;;;5037745;28;20029;-93
2022/08/29 08:58:00;;;;;;;5.50;3.70;;;;;;;;;;5036380;28;20017;-93
2022/08/29 09:00:33;;;;;;;5.72;3.63;;;;;;;;;;5048321;28;20056;-92
2022/08/29 09:03:24;;;;;;;6.35;3.90;;;;;;;;;;5056279;28;20025;-93
2022/08/29 09:06:05;;;;;;;5.78;3.83;;;;;;;;;;5049533;28;20028;-93
2022/08/29 09:08:44;;;;;;;3.83;3.40;;;;;;;;;;5048048;28;20029;-93
2022/08/29 09:11:45;;;;;;;5.90;4.00;;;;;;;;;;5050003;28;20046;-93
2022/08/29 09:14:19;;;;;;;4.43;3.85;;;;;;;;;;4965788;28;20176;-94
2022/08/29 09:17:13;;;;;;;7.47;3.95;;;;;;;;;;5036529;28;20040;-94
2022/08/29 09:19:43;;;;;;;5.47;3.70;;;;;;;;;;5038493;28;20486;-92
2022/08/29 09:22:39;;;;;;;8.07;4.28;;;;;;;;;;5056170;28;20020;-93
2022/08/29 09:25:09;;;;;;;4.63;3.42;;;;;;;;;;5046744;28;20032;-93
2022/08/29 09:27:36;;;;;;;4.90;3.40;;;;;;;;;;5038359;28;20025;-92
2022/08/29 09:30:08;;;;;;;4.82;3.85;;;;;;;;;;5035786;28;20049;-93
2022/08/29 09:32:53;;;;;;;4.00;3.20;;;;;;;;;;5042384;28;20028;-94
2022/08/29 09:35:42;;;;;;;6.90;3.42;;;;;;;;;;5054620;28;20021;-92
2022/08/29 09:38:20;;;;;;;4.13;3.00;;;;;;;;;;5036577;28;20048;-94
2022/08/29 09:40:46;;;;;;;3.80;3.05;;;;;;;;;;5036375;28;20471;-93
2022/08/29 09:43:45;;;;;;;5.68;3.08;;;;;;;;;;5049730;28;20025;-93
2022/08/29 09:46:11;;;;;;;4.45;3.17;;;;;;;;;;4982912;28;20503;-93
2022/08/29 09:48:42;;;;;;;5.70;3.08;;;;;;;;;;5038526;28;20024;-93
2022/08/29 09:51:21;;;;;;;5.03;3.47;;;;;;;;;;5036131;28;20071;-93
2022/08/29 09:54:13;;;;;;;4.75;3.10;;;;;;;;;;5036327;28;20025;-93
2022/08/29 09:56:47;;;;;;;;;;;;;;;;;;5036037;28;20162;-93
2022/08/29 09:59:34;;;;;;;5.32;3.03;;;;;;;;;;5069607;28;19905;-93
2022/08/29 10:02:42;;;;;;;4.93;3.22;;;;;;;;;;5035885;28;20049;-93
2022/08/29 10:05:08;;;;;;;5.25;2.70;;;;;;;;;;5052575;28;20051;-94
2022/08/29 10:08:06;;;;;;;6.07;2.70;;;;;;;;;;5035904;28;20049;-94
2022/08/29 10:10:36;;;;;;;3.63;3.00;;;;;;;;;;5035268;28;20112;-92
2022/08/29 10:13:22;;;;;;;5.53;3.10;;;;;;;;;;5053831;28;20048;-93
2022/08/29 10:19:02;;;;;;;4.97;2.78;;;;;;;;;;5057734;28;20084;-94
2022/08/29 10:21:33;;;;;;;6.07;3.00;;;;;;;;;;5039984;28;20024;-93
2022/08/29 10:24:18;;;;;;;3.70;2.53;;;;;;;;;;5045977;28;20025;-93
2022/08/29 10:26:53;;;;;;;4.00;2.92;;;;;;;;;;5040650;28;20475;-93
2022/08/29 10:29:25;;;;;;;5.28;3.17;;;;;;;;;;5050382;28;20101;-93
2022/08/29 10:32:01;;;;;;;4.47;3.55;;;;;;;;;;5039826;28;20413;-93
2022/08/29 10:34:33;;;;;;;5.15;3.13;;;;;;;;;;5039949;28;20036;-93
2022/08/29 10:37:16;;;;;;;4.47;2.70;;;;;;;;;;5058386;28;20382;-93
2022/08/29 10:39:43;;;;;;;5.63;3.00;;;;;;;;;;5043283;28;20017;-93
2022/08/29 10:42:14;;;;;;;4.38;2.63;;;;;;;;;;5058464;28;20428;-92
2022/08/29 10:45:09;;;;;;;;;;;;;;;;;;;;;
2022/08/29 10:47:43;;;;;;;4.70;2.65;;;;;;;;;;5077243;28;20377;-93
2022/08/29 10:50:23;;;;;;;4.50;3.15;;;;;;;;;;5059889;28;20017;-93
2022/08/29 10:53:06;;;;;;;4.67;3.00;;;;;;;;;;5059213;28;20025;-94
2022/08/29 10:56:05;;;;;;;5.45;3.10;;;;;;;;;;5059194;28;20035;-94
2022/08/29 10:58:44;;;;;;;5.72;2.92;;;;;;;;;;5049291;28;20121;-92
2022/08/29 11:01:35;;;;;;;3.58;2.78;;;;;;;;;;5057039;28;20027;-93
2022/08/29 11:04:15;;;;;;;6.13;2.85;;;;;;;;;;5047648;28;20086;-93
2022/08/29 11:06:46;;;;;;;3.58;2.60;;;;;;;;;;5059018;28;20024;-93
2022/08/29 11:09:15;;;;;;;4.70;2.80;;;;;;;;;;5059400;28;20021;-92
2022/08/29 11:11:44;;;;;;;4.93;3.00;;;;;;;;;;5036735;28;20025;-93
2022/08/29 11:14:34;;;;;;;3.08;2.75;;;;;;;;;;5053992;28;20021;-93
2022/08/29 11:17:03;;;;;;;6.32;3.30;;;;;;;;;;5048753;28;20029;-93
2022/08/29 11:19:44;;;;;;;4.75;2.92;;;;;;;;;;5058254;28;20093;-93
2022/08/29 11:22:25;;;;;;;4.88;2.72;;;;;;;;;;5038534;28;20028;-93
2022/08/29 11:25:03;;;;;;;7.43;2.97;;;;;;;;;;5038658;28;20063;-93
2022/08/29 11:27:52;;;;;;;4.25;2.70;;;;;;;;;;5038769;28;20040;-93
2022/08/29 11:30:23;;;;;;;3.42;2.42;;;;;;;;;;5011829;28;20040;-91
2022/08/29 11:32:52;;;;;;;4.80;2.88;;;;;;;;;;5058523;28;20020;-93
2022/08/29 11:35:24;;;;;;;4.53;3.17;;;;;;;;;;5053326;28;20029;-92
2022/08/29 11:38:02;;;;;;;3.90;2.80;;;;;;;;;;5038494;28;20132;-93
2022/08/29 11:40:36;;;;;;;4.03;2.50;;;;;;;;;;5055897;28;20032;-95
2022/08/29 11:43:07;;;;;;;5.45;2.85;;;;;;;;;;5047541;28;20029;-94
2022/08/29 11:45:36;;;;;;;4.17;2.63;;;;;;;;;;5038756;28;20803;-94
2022/08/29 11:48:25;;;;;;;3.78;2.60;;;;;;;;;;5038640;28;20059;-94
2022/08/29 11:50:53;;;;;;;4.05;2.60;;;;;;;;;;5018218;28;20127;-94
2022/08/29 11:53:22;;;;;;;4.82;2.58;;;;;;;;;;5034136;28;20382;-94
2022/08/29 11:56:18;;;;;;;4.13;2.60;;;;;;;;;;5038164;28;20487;-93
2022/08/29 11:58:58;;;;;;;4.55;2.72;;;;;;;;;;5040799;28;20027;-93
2022/08/29 12:01:24;;;;;;;5.22;3.00;;;;;;;;;;5058686;28;20509;-94
2022/08/29 12:03:56;;;;;;;4.45;2.75;;;;;;;;;;5046766;28;20120;-93
2022/08/29 12:09:47;;;;;;;4.47;2.85;;;;;;;;;;5048287;28;20079;-93
2022/08/29 12:12:06;;;;;;;5.22;2.92;;;;;;;;;;5053293;28;20025;-94
2022/08/29 12:14:44;;;;;;;3.92;2.80;;;;;;;;;;5045451;28;20025;-93
2022/08/29 12:17:30;;;;;;;3.80;3.00;;;;;;;;;;5037824;28;20025;-94
2022/08/29 12:23:22;;;;;;;3.60;2.70;;;;;;;;;;4989068;28;20041;-93
2022/08/29 12:26:14;;;;;;;3.88;2.25;;;;;;;;;;4958655;28;20035;-91
2022/08/29 12:28:46;;;;;;;4.30;2.60;;;;;;;;;;5015347;28;20508;-92
2022/08/29 12:31:12;;;;;;;4.93;2.60;;;;;;;;;;5037412;28;20048;-93
2022/08/29 12:33:53;;;;;;;6.38;3.15;;;;;;;;;;5038375;28;20045;-93
2022/08/29 12:36:44;;;;;;;4.15;2.55;;;;;;;;;;5042371;28;20029;-93
2022/08/29 12:39:21;;;;;;;2.92;2.50;;;;;;;;;;5045388;28;20376;-93
2022/08/29 12:41:56;;;;;;;5.63;2.63;;;;;;;;;;5040349;28;20052;-94
2022/08/29 12:44:27;;;;;;;4.30;2.80;;;;;;;;;;5037527;28;20021;-93
2022/08/29 12:46:55;;;;;;;4.20;2.83;;;;;;;;;;5037033;28;20036;-92
2022/08/29 12:49:24;;;;;;;4.32;2.85;;;;;;;;;;5037183;28;20092;-94
2022/08/29 12:52:13;;;;;;;5.40;3.10;;;;;;;;;;5037904;28;20025;-93
2022/08/29 12:54:56;;;;;;;5.10;3.20;;;;;;;;;;5036336;28;20025;-94
2022/08/29 12:58:12;;;;;;;4.47;2.70;;;;;;;;;;5056105;28;20031;-93
2022/08/29 13:00:35;;;;;;;3.10;2.58;;;;;;;;;;5073220;28;20129;-93
2022/08/29 13:03:35;;;;;;;4.97;2.70;;;;;;;;;;5057501;28;20021;-93
2022/08/29 13:06:23;;;;;;;2.90;2.53;;;;;;;;;;5068513;28;20033;-94
2022/08/29 13:09:03;;;;;;;6.65;2.92;;;;;;;;;;5053847;28;20077;-93
2022/08/29 13:11:32;;;;;;;5.57;2.67;;;;;;;;;;5039931;28;20025;-94
2022/08/29 13:14:07;;;;;;;5.35;2.88;;;;;;;;;;5037038;28;20074;-94
2022/08/29 13:16:33;;;;;;;4.40;3.20;;;;;;;;;;5036975;28;20033;-93
2022/08/29 13:19:17;;;;;;;3.90;2.58;;;;;;;;;;5039573;28;20033;-94
2022/08/29 13:21:46;;;;;;;5.75;2.30;;;;;;;;;;5040313;28;20466;-93
2022/08/29 13:24:18;;;;;;;3.80;2.70;;;;;;;;;;5045859;28;20025;-93
2022/08/29 13:26:44;;;;;;;;;;;;;;;;;;5040939;28;20049;-94
2022/08/29 13:29:33;;;;;;;3.35;2.20;;;;;;;;;;5043010;28;19917;-93
2022/08/29 13:32:25;;;;;;;4.22;2.70;;;;;;;;;;5026900;28;20033;-93
2022/08/29 13:35:06;;;;;;;5.05;2.90;;;;;;;;;;5056089;28;20036;-93
2022/08/29 13:38:06;;;;;;;3.53;2.33;;;;;;;;;;5057152;28;20029;-93
2022/08/29 13:41:04;;;;;;;3.75;2.80;;;;;;;;;;4959417;28;20029;-92
2022/08/29 13:43:44;;;;;;;3.75;2.40;;;;;;;;;;5035175;28;20029;-94
2022/08/29 13:46:23;;;;;;;4.67;2.70;;;;;;;;;;5038525;28;20029;-94
2022/08/29 13:49:14;;;;;;;6.80;2.80;;;;;;;;;;5043018;28;20040;-93
2022/08/29 13:51:40;;;;;;;;;;;;;;;;;;5041579;28;20056;-94
2022/08/29 13:54:07;;;;;;;2.95;2.20;;;;;;;;;;5040486;28;19905;-94
2022/08/29 13:56:36;;;;;;;5.72;2.92;;;;;;;;;;5047661;28;20024;-94
2022/08/29 13:59:05;;;;;;;3.22;2.20;;;;;;;;;;5058616;28;20055;-93
2022/08/29 14:01:34;;;;;;;4.72;2.40;;;;;;;;;;5040683;28;20044;-94
2022/08/29 14:04:02;;;;;;;5.32;2.75;;;;;;;;;;5040548;28;20029;-94
2022/08/29 14:06:43;;;;;;;5.65;2.42;;;;;;;;;;5056097;28;20069;-94
2022/08/29 14:09:26;;;;;;;3.85;2.35;;;;;;;;;;5048644;28;20021;-93
2022/08/29 14:11:55;;;;;;;3.63;2.22;;;;;;;;;;5049642;28;20023;-93
2022/08/29 14:14:24;;;;;;;4.97;2.40;;;;;;;;;;5060621;28;20025;-94
2022/08/29 14:17:03;;;;;;;6.70;2.50;;;;;;;;;;5044223;28;20051;-94
2022/08/29 14:19:46;;;;;;;3.60;2.25;;;;;;;;;;5040418;28;20036;-94
2022/08/29 14:22:15;;;;;;;2.45;2.10;;;;;;;;;;5048839;28;20021;-94
2022/08/29 14:25:06;;;;;;;4.43;2.22;;;;;;;;;;5060088;28;20032;-94
2022/08/29 14:27:35;;;;;;;4.68;2.47;;;;;;;;;;5032891;28;20025;-94
2022/08/29 14:30:23;;;;;;;2.92;2.22;;;;;;;;;;5054566;28;20049;-94
2022/08/29 14:32:57;;;;;;;3.38;2.40;;;;;;;;;;5036608;28;20014;-94
2022/08/29 14:35:33;;;;;;;;;;;;;;;;;;;;;
2022/08/29 14:38:07;;;;;;;2.80;2.10;;;;;;;;;;5037745;28;20017;-93
2022/08/29 14:40:34;;;;;;;6.03;2.60;;;;;;;;;;5036759;28;20122;-94
2022/08/29 14:43:13;;;;;;;3.03;2.50;;;;;;;;;;5044759;28;20021;-94
2022/08/29 14:45:46;;;;;;;3.47;2.45;;;;;;;;;;5036692;28;20025;-93
2022/08/29 14:48:16;;;;;;;5.78;2.55;;;;;;;;;;5036410;28;20025;-93
2022/08/29 14:50:44;;;;;;;4.90;2.40;;;;;;;;;;5036694;28;20018;-93
2022/08/29 14:53:25;;;;;;;5.90;2.40;;;;;;;;;;5036717;28;20146;-93
2022/08/29 14:55:54;;;;;;;7.40;2.50;;;;;;;;;;5038807;28;20463;-93
2022/08/29 14:58:23;;;;;;;4.70;2.75;;;;;;;;;;5036521;28;20037;-93
2022/08/29 15:00:55;;;;;;;2.97;2.33;;;;;;;;;;5036216;28;20120;-96
2022/08/29 15:03:24;;;;;;;5.95;2.33;;;;;;;;;;5038562;28;20033;-93
2022/08/29 15:06:06;;;;;;;15.82;3.22;;;;;;;;;;5044256;28;20028;-93
2022/08/29 15:08:35;;;;;;;;;;;;;;;;;;5050914;28;20029;-94
2022/08/29 15:11:04;;;;;;;2.67;2.33;;;;;;;;;;5035736;28;19944;-94
2022/08/29 15:13:46;;;;;;;2.95;2.28;;;;;;;;;;5035523;28;20022;-94
2022/08/29 15:16:15;;;;;;;5.90;2.60;;;;;;;;;;5035926;28;20093;-94
2022/08/29 15:18:44;;;;;;;3.83;2.50;;;;;;;;;;5036349;28;20037;-94
2022/08/29 15:21:13;;;;;;;5.10;2.20;;;;;;;;;;5036053;28;20040;-94
2022/08/29 15:23:47;;;;;;;3.13;2.05;;;;;;;;;;5035664;28;20034;-94
2022/08/29 15:26:14;;;;;;;3.00;2.22;;;;;;;;;;5036642;28;20045;-94
2022/08/29 15:28:53;;;;;;;4.53;2.33;;;;;;;;;;5034804;28;20038;-94
2022/08/29 15:31:55;;;;;;;5.05;2.33;;;;;;;;;;5035942;28;20040;-93
2022/08/29 15:34:24;;;;;;;3.28;2.20;;;;;;;;;;5035619;28;20108;-94